Time;durP1;ratioP1;P1;durP2;ratioP2;P2;SDS_P1;SDS_P2;PMS_P1;PMS_P2;Temp;Humidity;BMP_temperature;BMP_pressure;BME280_temperature;BME280_humidity;BME280_pressure;Samples;Min_cycle;Max_cycle;Signal;HPM_P1;HPM_P2
2022/10/21 00:00:43;;;;;;;6.83;6.23;;;;;;;20.63;37.08;95914.56;6162826;28;103179;-85
2022/10/21 00:03:48;;;;;;;7.60;7.00;;;;;;;20.67;37.38;95925.44;6150106;28;106277;-83
2022/10/21 00:06:51;;;;;;;6.47;5.97;;;;;;;20.61;37.62;95922.03;6143187;28;107103;-82
2022/10/21 00:09:54;;;;;;;7.00;6.33;;;;;;;20.63;37.60;95920.69;6159396;28;106501;-84
2022/10/21 00:12:58;;;;;;;7.10;6.50;;;;;;;20.61;37.73;95922.03;6168158;28;104528;-83
2022/10/21 00:16:05;;;;;;;6.30;5.80;;;;;;;20.61;37.76;95917.50;6167340;28;103511;-83
2022/10/21 00:19:09;;;;;;;6.80;6.30;;;;;;;20.58;37.88;95911.94;6151846;28;103129;-83
2022/10/21 00:22:12;;;;;;;6.60;6.07;;;;;;;20.50;37.50;95907.19;6160724;28;103451;-83
2022/10/21 00:25:15;;;;;;;5.80;5.40;;;;;;;20.60;37.33;95915.13;6166976;28;103760;-83
2022/10/21 00:28:19;;;;;;;6.93;6.33;;;;;;;20.59;37.20;95916.19;6167455;28;105228;-83
2022/10/21 00:31:22;;;;;;;6.80;6.20;;;;;;;20.54;37.69;95905.59;6167445;28;105061;-83
2022/10/21 00:34:28;;;;;;;6.87;6.30;;;;;;;20.55;37.40;95907.19;6160163;28;104167;-81
2022/10/21 00:37:33;;;;;;;7.17;6.57;;;;;;;20.55;37.26;95913.28;6167797;28;105220;-83
2022/10/21 00:40:36;;;;;;;7.63;7.03;;;;;;;20.53;37.40;95910.13;6167560;28;103439;-82
2022/10/21 00:44:00;;;;;;;7.73;7.13;;;;;;;20.49;37.53;95905.59;6160296;28;104256;-82
2022/10/21 00:47:07;;;;;;;7.50;6.83;;;;;;;20.55;37.44;95912.50;6166738;28;104037;-82
2022/10/21 00:50:23;;;;;;;7.27;6.60;;;;;;;20.52;37.33;95905.06;6167582;28;103319;-82
2022/10/21 00:53:27;;;;;;;7.20;6.50;;;;;;;20.51;37.51;95904.28;6167427;28;104149;-82
2022/10/21 00:56:34;;;;;;;7.00;6.40;;;;;;;20.50;37.39;95900.03;6158942;28;103951;-81
2022/10/21 00:59:41;;;;;;;7.37;6.83;;;;;;;20.49;37.46;95898.41;6167451;28;102987;-82
2022/10/21 01:02:45;;;;;;;7.00;6.37;;;;;;;20.49;37.54;95892.31;6167590;28;105290;-81
2022/10/21 01:05:50;;;;;;;7.23;6.73;;;;;;;20.45;37.43;95891.25;6162881;28;102909;-81
2022/10/21 01:08:56;;;;;;;7.30;6.80;;;;;;;20.43;37.47;95893.41;6163857;28;105475;-81
2022/10/21 01:12:07;;;;;;;7.97;7.27;;;;;;;20.45;37.07;95896.59;6166722;28;106507;-79
2022/10/21 01:15:18;;;;;;;7.30;6.80;;;;;;;20.46;37.20;95892.84;6166212;28;104210;-79
2022/10/21 01:18:28;;;;;;;7.00;6.50;;;;;;;20.46;36.91;95887.53;6158899;28;103141;-79
2022/10/21 01:21:38;;;;;;;8.33;7.73;;;;;;;20.45;37.03;95885.94;6167203;28;106264;-79
2022/10/21 01:24:59;;;;;;;7.50;7.00;;;;;;;20.41;37.19;95890.22;6167102;28;105735;-80
2022/10/21 01:28:13;;;;;;;7.97;7.37;;;;;;;20.39;37.15;95892.38;6167070;28;103404;-81
2022/10/21 01:31:26;;;;;;;7.00;6.50;;;;;;;20.37;37.11;95895.31;6152132;28;104056;-82
2022/10/21 01:34:36;;;;;;;7.53;6.93;;;;;;;20.38;36.97;95896.88;6166664;28;104724;-81
2022/10/21 01:37:49;;;;;;;7.30;6.80;;;;;;;20.38;37.05;95893.44;6161130;28;104092;-83
2022/10/21 01:40:58;;;;;;;8.13;7.43;;;;;;;20.26;37.20;95883.91;6159587;28;104042;-82
2022/10/21 01:44:12;;;;;;;7.67;6.97;;;;;;;20.38;36.96;95904.88;6166950;28;103521;-82
2022/10/21 01:47:19;;;;;;;7.00;6.50;;;;;;;20.34;36.77;95895.06;6142708;28;105796;-83
2022/10/21 01:50:27;;;;;;;7.37;6.87;;;;;;;20.38;37.02;95909.38;6164136;28;103539;-82
2022/10/21 01:53:33;;;;;;;6.93;6.43;;;;;;;20.38;36.94;95906.72;6158550;28;103121;-83
2022/10/21 01:56:38;;;;;;;7.73;7.13;;;;;;;20.32;37.19;95908.59;6166370;28;104327;-82
2022/10/21 01:59:43;;;;;;;8.13;7.43;;;;;;;20.31;37.16;95907.00;6165158;28;105449;-82
2022/10/21 02:02:49;;;;;;;8.23;7.43;;;;;;;20.29;37.02;95901.97;6148614;28;103799;-82
2022/10/21 02:05:53;;;;;;;8.00;7.33;;;;;;;20.32;37.03;95911.25;6160522;28;103788;-83
2022/10/21 02:08:56;;;;;;;6.97;6.37;;;;;;;20.29;37.11;95903.84;6166075;28;103251;-83
2022/10/21 02:12:02;;;;;;;7.53;6.83;;;;;;;20.31;37.20;95914.97;6166401;28;102766;-81
2022/10/21 02:15:08;;;;;;;6.90;6.40;;;;;;;20.31;36.99;95910.47;6157802;28;103986;-82
2022/10/21 02:18:20;;;;;;;8.10;7.40;;;;;;;20.28;37.30;95911.00;6165870;28;106337;-82
2022/10/21 02:21:28;;;;;;;7.80;7.13;;;;;;;20.30;36.95;95908.06;6166020;28;103048;-82
2022/10/21 02:24:37;;;;;;;6.80;6.30;;;;;;;20.27;37.08;95906.75;6165460;28;105180;-82
2022/10/21 02:27:40;;;;;;;7.07;6.40;;;;;;;20.28;37.06;95911.00;6157687;28;103654;-81
2022/10/21 02:30:55;;;;;;;7.70;7.10;;;;;;;20.28;37.29;95911.00;6165125;28;102839;-81
2022/10/21 02:34:10;;;;;;;7.80;6.87;;;;;;;20.26;37.23;95921.13;6163581;28;105288;-80
2022/10/21 02:37:23;;;;;;;7.60;7.00;;;;;;;20.24;37.23;95917.94;6151863;28;104647;-80
2022/10/21 02:40:31;;;;;;;7.43;6.80;;;;;;;20.24;37.36;95911.81;6156670;28;102899;-82
2022/10/21 02:43:38;;;;;;;7.00;6.50;;;;;;;20.19;37.19;95915.28;6165690;28;103974;-81
2022/10/21 02:46:43;;;;;;;7.40;6.70;;;;;;;20.22;37.22;95916.59;6155973;28;107868;-82
2022/10/21 02:49:50;;;;;;;7.60;7.00;;;;;;;20.24;37.36;95917.13;6152201;28;102947;-83
2022/10/21 02:52:53;;;;;;;6.73;6.23;;;;;;;20.23;37.15;95912.88;6165445;28;102654;-83
2022/10/21 02:55:56;;;;;;;7.47;6.90;;;;;;;20.21;37.19;95921.13;6166777;28;103702;-82
2022/10/21 02:59:00;;;;;;;7.00;6.40;;;;;;;20.23;37.14;95915.53;6167771;28;102842;-83
2022/10/21 03:02:03;;;;;;;7.33;6.73;;;;;;;20.21;37.27;95920.31;6157494;28;103526;-83
2022/10/21 03:05:09;;;;;;;7.00;6.50;;;;;;;20.18;37.22;95923.53;6165476;28;104589;-82
2022/10/21 03:08:12;;;;;;;7.03;6.43;;;;;;;20.21;37.74;95921.13;6165893;28;103750;-82
2022/10/21 03:11:15;;;;;;;8.83;7.00;;;;;;;20.20;38.10;95916.88;6160572;28;106220;-80
2022/10/21 03:14:19;;;;;;;6.47;5.80;;;;;;;20.23;38.00;95931.47;6165826;28;103697;-80
2022/10/21 03:17:22;;;;;;;7.50;6.80;;;;;;;20.23;38.21;95932.28;6169823;28;105443;-81
2022/10/21 03:20:28;;;;;;;10.43;9.43;;;;;;;20.24;38.42;95923.25;6162787;28;105660;-80
2022/10/21 03:23:31;;;;;;;10.90;9.83;;;;;;;20.26;38.32;95934.41;6159433;28;106122;-79
2022/10/21 03:26:35;;;;;;;13.00;10.30;;;;;;;20.28;37.93;95934.13;6167709;28;103039;-80
2022/10/21 03:29:38;;;;;;;10.87;9.90;;;;;;;20.28;38.10;95929.63;6156840;28;102730;-80
2022/10/21 03:32:41;;;;;;;11.33;10.23;;;;;;;20.31;37.87;95936.25;6143966;28;105669;-81
2022/10/21 03:35:46;;;;;;;9.83;8.90;;;;;;;20.30;38.26;95940.75;6140236;28;103632;-81
2022/10/21 03:38:50;;;;;;;10.47;9.47;;;;;;;20.30;37.94;95938.09;6168981;28;103408;-80
2022/10/21 03:41:53;;;;;;;9.10;8.13;;;;;;;20.31;38.00;95941.56;6167906;28;105502;-79
2022/10/21 03:44:56;;;;;;;10.07;9.27;;;;;;;20.30;37.53;95943.44;6168514;28;103321;-81
2022/10/21 03:47:59;;;;;;;9.60;8.80;;;;;;;20.26;37.67;95947.69;6161154;28;103998;-82
2022/10/21 03:51:03;;;;;;;11.50;10.37;;;;;;;20.31;38.54;95952.19;6169271;28;103878;-83
2022/10/21 03:54:06;;;;;;;12.33;10.47;;;;;;;20.26;38.00;95947.69;6169434;28;106529;-83
2022/10/21 03:57:10;;;;;;;11.20;10.13;;;;;;;20.28;38.73;95950.88;6164568;28;105283;-81
2022/10/21 04:00:14;;;;;;;12.23;10.70;;;;;;;20.27;38.41;95943.19;6165760;28;103180;-80
2022/10/21 04:03:17;;;;;;;12.77;11.47;;;;;;;20.24;39.70;95944.53;6153732;28;106347;-81
2022/10/21 04:06:22;;;;;;;11.70;10.27;;;;;;;20.27;39.84;95943.97;6168375;28;103061;-81
2022/10/21 04:09:25;;;;;;;12.37;9.90;;;;;;;20.35;40.00;95945.28;6158336;28;106602;-82
2022/10/21 04:12:28;;;;;;;12.03;10.27;;;;;;;20.46;39.80;95948.69;6186871;28;103009;-78
2022/10/21 04:15:31;;;;;;;12.90;10.23;;;;;;;20.44;39.90;95948.16;6157885;28;104497;-79
2022/10/21 04:18:35;;;;;;;11.10;10.10;;;;;;;20.45;39.57;95939.13;6167019;28;103066;-78
2022/10/21 04:21:40;;;;;;;10.40;9.50;;;;;;;20.48;40.06;95947.34;6159081;28;103543;-81
2022/10/21 04:24:43;;;;;;;14.83;9.40;;;;;;;20.36;39.87;95951.41;6165936;28;103480;-80
2022/10/21 04:27:46;;;;;;;11.53;9.30;;;;;;;20.34;39.86;95950.88;6167152;28;105883;-79
2022/10/21 04:30:50;;;;;;;10.87;10.00;;;;;;;20.25;39.84;95940.78;6166984;28;102864;-79
2022/10/21 04:33:53;;;;;;;11.90;10.80;;;;;;;20.24;39.64;95949.00;6159081;28;105438;-79
2022/10/21 04:36:57;;;;;;;12.00;10.80;;;;;;;20.24;39.91;95949.00;6167276;28;103065;-79
2022/10/21 04:40:07;;;;;;;12.10;10.90;;;;;;;20.22;39.60;95940.53;6167903;28;103740;-79
2022/10/21 04:43:11;;;;;;;10.00;9.10;;;;;;;20.22;39.73;95943.97;6160424;28;104490;-80
2022/10/21 04:46:15;;;;;;;12.00;10.00;;;;;;;20.22;39.41;95951.94;6167654;28;102859;-79
2022/10/21 04:49:19;;;;;;;10.10;9.30;;;;;;;20.20;39.41;95948.75;6168991;28;103621;-79
2022/10/21 04:52:23;;;;;;;11.47;10.47;;;;;;;20.18;39.09;95945.59;6170693;28;102795;-79
2022/10/21 04:55:26;;;;;;;10.87;9.77;;;;;;;20.18;39.30;95945.59;6161349;28;104209;-81
2022/10/21 04:58:29;;;;;;;10.27;9.37;;;;;;;20.17;39.12;95946.66;6169695;28;106298;-80
2022/10/21 05:01:33;;;;;;;9.87;8.87;;;;;;;20.14;39.02;95944.50;6168811;28;104505;-80
2022/10/21 05:04:36;;;;;;;9.80;8.90;;;;;;;20.14;38.88;95941.84;6169190;28;105222;-80
2022/10/21 05:07:41;;;;;;;8.97;8.13;;;;;;;20.13;38.91;95947.44;6159958;28;103641;-80
2022/10/21 05:10:44;;;;;;;9.00;8.30;;;;;;;20.09;38.88;95947.19;6168283;28;105005;-80
2022/10/21 05:13:47;;;;;;;9.70;8.77;;;;;;;20.09;38.80;95949.84;6168967;28;105436;-80
2022/10/21 05:16:50;;;;;;;9.73;8.80;;;;;;;20.08;38.72;95945.59;6163889;28;106624;-82
2022/10/21 05:19:54;;;;;;;8.80;8.10;;;;;;;20.03;38.64;95946.41;6161644;28;103188;-78
2022/10/21 05:22:58;;;;;;;9.17;8.37;;;;;;;20.12;38.75;95953.81;6167210;28;106392;-79
2022/10/21 05:26:02;;;;;;;10.27;9.30;;;;;;;20.06;39.00;95958.38;6166787;28;105294;-79
2022/10/21 05:29:05;;;;;;;11.23;10.23;;;;;;;20.06;38.87;95958.38;6158155;28;103557;-79
2022/10/21 05:32:08;;;;;;;10.17;9.33;;;;;;;20.03;38.83;95957.06;6165939;28;105343;-80
2022/10/21 05:35:12;;;;;;;11.17;10.13;;;;;;;20.06;38.56;95966.34;6166812;28;103064;-78
2022/10/21 05:38:17;;;;;;;11.03;10.03;;;;;;;20.05;38.72;95966.59;6165452;28;104008;-80
2022/10/21 05:41:20;;;;;;;11.37;10.00;;;;;;;20.03;38.56;95970.34;6157910;28;103163;-80
2022/10/21 05:44:23;;;;;;;15.57;9.20;;;;;;;20.05;38.43;95967.41;6165743;28;103520;-80
2022/10/21 05:47:26;;;;;;;10.30;9.43;;;;;;;20.04;38.43;95971.13;6165167;28;103159;-80
2022/10/21 05:50:29;;;;;;;10.60;9.57;;;;;;;20.07;38.27;95975.09;6162794;28;105940;-81
2022/10/21 05:53:34;;;;;;;10.10;9.17;;;;;;;20.06;38.65;95979.63;6160660;28;106304;-79
2022/10/21 05:56:37;;;;;;;10.67;9.70;;;;;;;20.09;38.59;95980.94;6165077;28;106548;-79
2022/10/21 05:59:40;;;;;;;10.50;9.50;;;;;;;20.14;38.65;95980.91;6164982;28;104018;-80
2022/10/21 06:02:44;;;;;;;9.77;8.97;;;;;;;20.24;38.23;95986.22;6156868;28;104257;-79
2022/10/21 06:05:47;;;;;;;10.57;9.60;;;;;;;20.31;38.12;95986.75;6163950;28;103296;-80
2022/10/21 06:08:51;;;;;;;10.60;9.50;;;;;;;20.40;38.20;95994.97;6164052;28;103474;-80
2022/10/21 06:11:56;;;;;;;10.63;9.60;;;;;;;20.48;37.80;96000.50;6165225;28;104476;-80
2022/10/21 06:14:59;;;;;;;11.67;10.47;;;;;;;20.58;37.64;96003.16;6156181;28;103440;-80
2022/10/21 06:18:12;;;;;;;10.57;9.47;;;;;;;20.67;37.57;96008.72;6164353;28;104974;-77
2022/10/21 06:21:41;;;;;;;10.27;9.33;;;;;;;20.76;37.45;96008.91;6164559;28;103081;-78
2022/10/21 06:24:51;;;;;;;10.43;9.53;;;;;;;20.83;37.04;96002.22;6160282;28;103711;-79
2022/10/21 06:27:55;;;;;;;11.03;9.87;;;;;;;20.92;37.25;96007.78;6162528;28;107276;-79
2022/10/21 06:30:59;;;;;;;10.47;9.50;;;;;;;20.94;37.01;96010.97;6164060;28;104209;-80
2022/10/21 06:34:02;;;;;;;10.43;9.43;;;;;;;21.04;37.30;96015.44;6165910;28;103185;-80
2022/10/21 06:37:06;;;;;;;9.73;8.80;;;;;;;21.12;36.80;96014.88;6155808;28;105801;-81
2022/10/21 06:40:11;;;;;;;9.87;9.00;;;;;;;21.18;36.71;96027.09;6164262;28;103409;-81
2022/10/21 06:43:15;;;;;;;10.37;9.20;;;;;;;21.24;36.87;96030.53;6164141;28;103344;-80
2022/10/21 06:46:18;;;;;;;9.50;8.50;;;;;;;21.29;36.52;96025.94;6164001;28;102881;-80
2022/10/21 06:49:22;;;;;;;11.87;9.37;;;;;;;21.35;36.64;96032.06;6159393;28;106778;-80
2022/10/21 06:52:25;;;;;;;9.40;8.57;;;;;;;21.40;36.38;96029.34;6169086;28;103104;-82
2022/10/21 06:55:34;;;;;;;9.73;8.77;;;;;;;21.42;36.56;96027.22;6168680;28;102913;-80
2022/10/21 06:58:38;;;;;;;10.13;9.23;;;;;;;21.48;36.67;96029.53;6164608;28;104323;-82
2022/10/21 07:01:42;;;;;;;9.17;8.30;;;;;;;21.54;36.62;96033.00;6164358;28;103393;-82
2022/10/21 07:05:03;;;;;;;9.03;8.23;;;;;;;21.60;36.17;96028.41;6169776;28;105313;-83
2022/10/21 07:08:07;;;;;;;9.60;8.70;;;;;;;21.63;36.17;96027.84;6169898;28;106821;-82
2022/10/21 07:11:16;;;;;;;9.07;8.20;;;;;;;21.66;36.41;96038.72;6161419;28;103912;-82
2022/10/21 07:14:19;;;;;;;9.67;8.77;;;;;;;21.70;36.10;96031.81;6169420;28;103242;-83
2022/10/21 07:17:22;;;;;;;9.37;8.57;;;;;;;21.73;36.27;96028.56;6168831;28;103954;-83
2022/10/21 07:20:26;;;;;;;9.00;8.10;;;;;;;21.76;36.48;96032.53;6168281;28;103519;-82
2022/10/21 07:23:29;;;;;;;7.87;7.27;;;;;;;21.80;36.24;96029.03;6160206;28;103367;-83
2022/10/21 07:26:34;;;;;;;8.90;7.83;;;;;;;21.80;36.00;96029.03;6168328;28;103513;-80
2022/10/21 07:29:37;;;;;;;8.63;7.87;;;;;;;21.86;36.33;96031.72;6168299;28;102972;-82
2022/10/21 07:32:41;;;;;;;8.90;8.10;;;;;;;21.82;36.35;96023.44;6165516;28;104921;-78
2022/10/21 07:35:44;;;;;;;9.37;8.47;;;;;;;21.93;36.14;96032.97;6163870;28;105262;-81
2022/10/21 07:38:48;;;;;;;8.43;7.70;;;;;;;21.96;36.25;96032.41;6169604;28;103645;-83
2022/10/21 07:41:54;;;;;;;8.40;7.63;;;;;;;21.97;35.79;96028.66;6169312;28;103307;-83
2022/10/21 07:45:00;;;;;;;8.97;8.07;;;;;;;21.99;36.10;96023.03;6161298;28;104863;-82
2022/10/21 07:48:03;;;;;;;10.90;9.90;;;;;;;22.01;36.37;96021.72;6169148;28;105342;-82
2022/10/21 07:51:08;;;;;;;9.27;8.50;;;;;;;22.04;36.27;96021.16;6167789;28;103049;-82
2022/10/21 07:54:12;;;;;;;9.73;8.90;;;;;;;22.05;35.97;96019.28;6168274;28;103616;-82
2022/10/21 07:57:16;;;;;;;10.20;9.10;;;;;;;22.08;35.79;96016.84;6159188;28;103024;-83
2022/10/21 08:00:20;;;;;;;9.70;8.90;;;;;;;22.09;35.76;96017.63;6166996;28;102733;-83
2022/10/21 08:03:23;;;;;;;8.87;8.10;;;;;;;22.11;35.95;96015.47;6168320;28;103023;-82
2022/10/21 08:06:27;;;;;;;9.93;9.03;;;;;;;22.12;35.60;96011.72;6165292;28;106564;-81
2022/10/21 08:09:36;;;;;;;8.30;7.47;;;;;;;22.11;36.28;96010.94;6163351;28;102689;-81
2022/10/21 08:12:41;;;;;;;9.23;8.30;;;;;;;22.12;36.10;96006.41;6166729;28;103422;-80
2022/10/21 08:15:46;;;;;;;8.40;7.70;;;;;;;22.13;36.28;96005.31;6167213;28;104123;-82
2022/10/21 08:18:50;;;;;;;8.77;8.07;;;;;;;22.10;36.25;96006.69;6158963;28;103148;-80
2022/10/21 08:21:54;;;;;;;8.67;7.77;;;;;;;22.11;36.25;96005.59;6170386;28;103300;-79
2022/10/21 08:24:58;;;;;;;7.57;6.97;;;;;;;22.07;36.22;95999.25;6168182;28;102618;-79
2022/10/21 08:28:05;;;;;;;9.33;8.53;;;;;;;22.10;36.13;96001.34;6166621;28;103311;-79
2022/10/21 08:31:10;;;;;;;10.90;9.90;;;;;;;22.08;36.39;95998.19;6158523;28;103941;-81
2022/10/21 08:34:13;;;;;;;12.40;11.50;;;;;;;22.09;36.35;95999.75;6166574;28;103212;-79
2022/10/21 08:37:17;;;;;;;14.17;13.07;;;;;;;22.08;36.58;95992.84;6166098;28;103904;-78
2022/10/21 08:40:26;;;;;;;15.43;14.33;;;;;;;22.07;36.23;95996.59;6162798;28;103220;-78
2022/10/21 08:43:34;;;;;;;15.03;13.83;;;;;;;22.04;36.49;95985.69;6160916;28;103084;-77
2022/10/21 08:46:43;;;;;;;16.90;15.27;;;;;;;22.03;36.58;95987.56;6167123;28;103132;-79
2022/10/21 08:49:55;;;;;;;16.43;15.23;;;;;;;22.02;36.72;95987.84;6166895;28;103290;-79
2022/10/21 08:53:05;;;;;;;18.70;17.40;;;;;;;22.00;36.94;95980.13;6158278;28;103354;-79
2022/10/21 08:56:13;;;;;;;19.73;18.33;;;;;;;21.97;36.52;95974.56;6166324;28;103842;-79
2022/10/21 08:59:25;;;;;;;20.73;19.03;;;;;;;22.06;36.85;95976.34;6166420;28;103085;-81
2022/10/21 09:03:03;;;;;;;20.10;18.60;;;;;;;22.11;36.08;95970.94;6166517;28;106608;-82
2022/10/21 09:06:17;;;;;;;18.50;16.87;;;;;;;22.13;36.20;95965.34;6160699;28;103118;-81
2022/10/21 09:09:26;;;;;;;18.63;17.10;;;;;;;22.14;36.49;95966.13;6166191;28;106298;-81
2022/10/21 09:12:36;;;;;;;17.93;16.53;;;;;;;22.13;36.70;95967.19;6166360;28;102899;-83
2022/10/21 09:15:52;;;;;;;17.43;16.23;;;;;;;22.14;36.41;95964.25;6167252;28;103282;-83
2022/10/21 09:19:05;;;;;;;16.40;15.20;;;;;;;22.15;36.66;95949.84;6168351;28;102781;-81
2022/10/21 09:22:40;;;;;;;16.20;14.90;;;;;;;22.24;36.11;95950.03;6168207;28;105216;-82
2022/10/21 09:25:53;;;;;;;16.80;15.60;;;;;;;22.27;36.07;95941.47;6165712;28;104597;-82
2022/10/21 09:29:03;;;;;;;14.90;13.80;;;;;;;22.26;36.44;95951.31;6162761;28;104108;-84
2022/10/21 09:32:15;;;;;;;16.10;14.90;;;;;;;22.27;36.43;95939.59;6149756;28;104040;-81
2022/10/21 09:35:26;;;;;;;15.80;14.60;;;;;;;22.29;36.11;95940.09;6165707;28;102909;-81
2022/10/21 09:38:39;;;;;;;15.23;14.03;;;;;;;22.34;36.30;95928.56;6159276;28;104049;-83
2022/10/21 09:41:45;;;;;;;15.20;13.90;;;;;;;22.31;36.18;95929.94;6167040;28;102974;-81
2022/10/21 09:44:49;;;;;;;15.10;14.00;;;;;;;22.32;36.74;95922.72;6166201;28;104421;-81
2022/10/21 09:47:58;;;;;;;14.47;13.47;;;;;;;22.31;36.53;95929.94;6167486;28;103154;-80
2022/10/21 09:51:06;;;;;;;13.83;12.83;;;;;;;22.31;36.15;95926.47;6157589;28;104991;-81
2022/10/21 09:54:13;;;;;;;14.80;13.73;;;;;;;22.29;36.35;95932.09;6165932;28;103017;-81
2022/10/21 09:57:22;;;;;;;14.27;13.20;;;;;;;22.29;36.17;95923.31;6165471;28;105544;-80
2022/10/21 10:00:42;;;;;;;12.60;11.73;;;;;;;22.34;36.46;95934.69;6156952;28;102854;-79
2022/10/21 10:03:49;;;;;;;13.53;12.53;;;;;;;22.34;36.29;95939.22;6165602;28;103094;-81
2022/10/21 10:06:52;;;;;;;13.13;12.13;;;;;;;22.33;36.35;95930.44;6164025;28;104078;-80
2022/10/21 10:09:56;;;;;;;13.00;12.10;;;;;;;22.33;36.76;95932.31;6165429;28;103405;-79
2022/10/21 10:13:00;;;;;;;12.97;11.97;;;;;;;22.31;36.65;95921.94;6155726;28;103402;-80
2022/10/21 10:16:14;;;;;;;12.60;11.70;;;;;;;22.33;36.58;95924.31;6164655;28;104116;-79
2022/10/21 10:19:20;;;;;;;12.97;11.90;;;;;;;22.32;36.60;95920.06;6159731;28;103346;-79
2022/10/21 10:22:23;;;;;;;12.27;11.37;;;;;;;22.30;36.81;95909.69;6157671;28;103337;-79
2022/10/21 10:25:31;;;;;;;12.00;11.20;;;;;;;22.32;36.48;95912.06;6159132;28;103328;-79
2022/10/21 10:28:34;;;;;;;12.57;11.67;;;;;;;22.31;36.70;95913.13;6163902;28;105535;-79
2022/10/21 10:31:38;;;;;;;12.30;11.40;;;;;;;22.29;36.50;95916.09;6165210;28;104038;-81
2022/10/21 10:34:53;;;;;;;12.03;11.07;;;;;;;22.26;36.39;95902.53;6155296;28;105699;-80
2022/10/21 10:37:58;;;;;;;11.93;11.03;;;;;;;22.28;36.72;95911.03;6163854;28;103676;-83
2022/10/21 10:41:07;;;;;;;11.00;10.20;;;;;;;22.28;36.46;95895.06;6164184;28;103949;-79
2022/10/21 10:44:20;;;;;;;11.90;11.00;;;;;;;22.23;36.72;95887.13;6163815;28;105730;-78
2022/10/21 10:47:27;;;;;;;11.70;10.70;;;;;;;22.22;36.89;95885.53;6154682;28;103338;-80
2022/10/21 10:50:47;;;;;;;12.07;11.17;;;;;;;22.19;36.82;95883.44;6164013;28;105162;-80
2022/10/21 10:54:00;;;;;;;11.43;10.53;;;;;;;22.19;37.19;95870.13;6164263;28;104526;-80
2022/10/21 10:57:10;;;;;;;10.70;9.90;;;;;;;22.18;36.81;95861.31;6158159;28;105262;-80
2022/10/21 11:00:18;;;;;;;10.30;9.60;;;;;;;22.17;36.87;95856.25;6163953;28;105661;-80
2022/10/21 11:03:27;;;;;;;11.70;10.60;;;;;;;22.02;37.63;95866.06;6165369;28;103354;-86
2022/10/21 11:06:42;;;;;;;13.23;11.73;;;;;;;21.83;37.93;95854.53;6164979;28;103262;-82
2022/10/21 11:09:46;;;;;;;12.70;11.50;;;;;;;21.73;38.37;95852.75;6155485;28;102805;-82
2022/10/21 11:12:50;;;;;;;21.33;10.90;;;;;;;21.69;38.47;95843.75;6165011;28;103102;-86
2022/10/21 11:16:14;;;;;;;12.90;10.90;;;;;;;21.67;38.70;95853.06;6165507;28;103339;-81
2022/10/21 11:19:24;;;;;;;11.83;10.63;;;;;;;21.62;38.43;95840.59;6161878;28;107614;-81
2022/10/21 11:22:41;;;;;;;12.93;11.27;;;;;;;21.61;38.56;95830.25;6160762;28;106226;-81
2022/10/21 11:25:49;;;;;;;12.23;11.03;;;;;;;21.55;38.67;95824.19;6162954;28;103527;-81
2022/10/21 11:28:59;;;;;;;12.07;10.87;;;;;;;21.56;38.58;95822.31;6164027;28;103761;-80
2022/10/21 11:32:20;;;;;;;12.30;11.10;;;;;;;21.50;38.69;95822.34;6154352;28;103565;-83
2022/10/21 11:35:34;;;;;;;11.17;10.17;;;;;;;21.43;39.12;95810.47;6164746;28;103441;-81
2022/10/21 11:38:52;;;;;;;11.00;10.10;;;;;;;21.41;39.35;95807.28;6167724;28;103312;-82
2022/10/21 11:42:03;;;;;;;12.80;11.50;;;;;;;21.43;39.31;95807.78;6164223;28;103056;-78
2022/10/21 11:45:33;;;;;;;12.30;10.67;;;;;;;21.46;38.61;95802.69;6163453;28;102975;-81
2022/10/21 11:48:58;;;;;;;12.67;11.53;;;;;;;21.45;38.86;95798.44;6167111;28;103649;-79
2022/10/21 11:52:10;;;;;;;12.00;10.90;;;;;;;21.47;38.58;95796.28;6165464;28;105295;-79
2022/10/21 11:55:43;;;;;;;11.03;10.13;;;;;;;21.43;38.65;95794.47;6158398;28;103732;-79
2022/10/21 11:58:57;;;;;;;12.47;11.27;;;;;;;21.40;39.33;95787.84;6154497;28;104600;-79
2022/10/21 12:02:13;;;;;;;11.57;10.37;;;;;;;21.33;39.08;95789.25;6167105;28;105383;-79
2022/10/21 12:05:26;;;;;;;10.93;10.03;;;;;;;21.29;38.94;95777.59;6158406;28;103320;-80
2022/10/21 12:08:36;;;;;;;12.33;11.23;;;;;;;21.25;39.05;95777.34;6165937;28;103418;-80
2022/10/21 12:11:54;;;;;;;14.43;11.90;;;;;;;21.21;38.27;95766.50;6166927;28;103268;-80
2022/10/21 12:15:01;;;;;;;12.80;11.70;;;;;;;21.25;37.87;95760.59;6167378;28;105911;-80
2022/10/21 12:18:06;;;;;;;12.23;11.23;;;;;;;21.21;38.08;95757.72;6157171;28;103650;-79
2022/10/21 12:21:16;;;;;;;13.57;11.40;;;;;;;21.23;38.63;95754.75;6166691;28;103214;-80
2022/10/21 12:24:43;;;;;;;13.40;12.10;;;;;;;21.17;39.46;95754.00;6167312;28;103888;-79
2022/10/21 12:27:53;;;;;;;14.33;10.97;;;;;;;21.21;39.56;95744.41;6160930;28;103001;-78
2022/10/21 12:31:02;;;;;;;12.23;11.00;;;;;;;21.18;39.26;95750.31;6166540;28;103363;-80
2022/10/21 12:34:09;;;;;;;12.23;11.10;;;;;;;21.18;39.14;95740.44;6167505;28;102673;-81
2022/10/21 12:37:46;;;;;;;13.13;11.77;;;;;;;21.17;38.82;95744.19;6167990;28;105251;-79
2022/10/21 12:40:51;;;;;;;12.57;11.37;;;;;;;21.13;38.90;95742.34;6158880;28;105311;-81
2022/10/21 12:44:03;;;;;;;11.67;10.53;;;;;;;21.13;39.07;95753.00;6166524;28;102927;-81
2022/10/21 12:47:24;;;;;;;12.33;11.20;;;;;;;21.13;39.01;95745.00;6166705;28;102768;-81
2022/10/21 12:50:30;;;;;;;11.67;10.67;;;;;;;21.15;39.03;95750.84;6161183;28;103192;-78
2022/10/21 12:53:41;;;;;;;11.10;10.20;;;;;;;21.13;39.24;95734.38;6165652;28;105059;-84
2022/10/21 12:56:48;;;;;;;11.57;10.67;;;;;;;21.09;39.42;95730.69;6167008;28;103911;-82
2022/10/21 13:00:36;;;;;;;12.23;11.13;;;;;;;21.09;39.03;95731.47;6166276;28;103235;-80
2022/10/21 13:03:55;;;;;;;12.17;11.07;;;;;;;21.09;39.03;95736.00;6156986;28;103325;-81
2022/10/21 13:07:00;;;;;;;11.37;10.47;;;;;;;21.10;39.41;95722.41;6165978;28;104258;-83
2022/10/21 13:10:24;;;;;;;12.10;11.00;;;;;;;21.10;39.79;95732.28;6166100;28;105271;-82
2022/10/21 13:13:34;;;;;;;11.80;10.80;;;;;;;21.09;40.34;95728.03;6149296;28;102896;-81
2022/10/21 13:16:41;;;;;;;12.63;11.13;;;;;;;21.07;40.44;95724.84;6166446;28;103287;-83
2022/10/21 13:19:44;;;;;;;12.03;10.90;;;;;;;21.08;39.76;95732.56;6166539;28;105569;-81
2022/10/21 13:22:48;;;;;;;11.83;10.70;;;;;;;21.11;40.79;95731.97;6166462;28;103210;-82
2022/10/21 13:26:05;;;;;;;11.43;10.33;;;;;;;21.16;40.09;95731.91;6156846;28;105303;-81
2022/10/21 13:29:34;;;;;;;12.00;10.07;;;;;;;21.20;40.33;95729.50;6166883;28;106142;-80
2022/10/21 13:32:40;;;;;;;10.83;9.90;;;;;;;21.24;40.13;95722.53;6162307;28;104153;-78
2022/10/21 13:35:47;;;;;;;10.80;9.93;;;;;;;21.25;40.94;95726.00;6155331;28;104167;-77
2022/10/21 13:38:54;;;;;;;11.27;10.20;;;;;;;21.25;40.54;95718.00;6162803;28;104482;-85
2022/10/21 13:42:01;;;;;;;11.00;10.07;;;;;;;21.29;40.80;95727.81;6166989;28;102807;-83
2022/10/21 13:45:18;;;;;;;12.80;10.53;;;;;;;21.29;40.79;95727.00;6165984;28;105134;-85
2022/10/21 13:48:25;;;;;;;11.20;10.30;;;;;;;21.29;40.37;95724.34;6158076;28;103478;-85
2022/10/21 13:51:30;;;;;;;11.17;10.17;;;;;;;21.29;40.15;95725.13;6166051;28;104945;-85
2022/10/21 13:54:34;;;;;;;10.87;9.97;;;;;;;21.28;40.58;95728.88;6166995;28;102968;-84
2022/10/21 13:57:38;;;;;;;11.13;10.03;;;;;;;21.25;40.13;95713.47;6165241;28;103142;-84
2022/10/21 14:00:42;;;;;;;10.70;9.70;;;;;;;21.30;40.29;95720.59;6157679;28;103452;-83
2022/10/21 14:03:47;;;;;;;10.80;9.93;;;;;;;21.30;40.07;95720.59;6165889;28;104172;-85
2022/10/21 14:06:55;;;;;;;10.43;9.40;;;;;;;21.17;40.21;95706.91;6164463;28;103130;-85
2022/10/21 14:09:59;;;;;;;11.77;9.93;;;;;;;21.27;40.36;95721.97;6160465;28;103298;-83
2022/10/21 14:13:04;;;;;;;10.93;10.00;;;;;;;21.26;40.11;95728.38;6164854;28;105525;-84
2022/10/21 14:16:08;;;;;;;10.83;10.00;;;;;;;21.26;40.45;95725.72;6165157;28;103074;-85
2022/10/21 14:19:18;;;;;;;10.60;9.70;;;;;;;21.25;40.30;95729.44;6166082;28;104042;-83
2022/10/21 14:22:25;;;;;;;10.77;9.80;;;;;;;21.24;39.88;95727.88;6158201;28;103028;-84